Time;durP1;ratioP1;P1;durP2;ratioP2;P2;SDS_P1;SDS_P2;PMS_P1;PMS_P2;Temp;Humidity;BMP_temperature;BMP_pressure;BME280_temperature;BME280_humidity;BME280_pressure;Samples;Min_cycle;Max_cycle;Signal;HPM_P1;HPM_P2
2021/01/09 00:01:41;;;;;;;39.47;21.20;;;;;;;1.03;81.76;99724.98;1721344;82;21041;-74
2021/01/09 00:04:09;;;;;;;41.10;22.70;;;;;;;1.03;81.84;99726.33;1714933;81;21118;-75
2021/01/09 00:06:40;;;;;;;40.87;21.10;;;;;;;0.99;81.47;99727.23;1705002;83;21480;-78
2021/01/09 00:09:08;;;;;;;43.63;23.63;;;;;;;0.96;81.63;99717.39;1706934;81;21099;-74
2021/01/09 00:11:36;;;;;;;42.17;22.13;;;;;;;0.93;81.77;99709.70;1705836;83;21122;-76
2021/01/09 00:14:04;;;;;;;43.15;23.57;;;;;;;0.93;81.98;99723.17;1721008;81;21124;-76
2021/01/09 00:16:32;;;;;;;41.58;22.32;;;;;;;0.95;81.84;99725.14;1733680;82;21005;-75
2021/01/09 00:19:00;;;;;;;42.40;23.07;;;;;;;0.95;81.47;99711.67;1727432;81;21226;-76
2021/01/09 00:21:36;;;;;;;41.40;23.50;;;;;;;0.93;81.78;99705.66;1733609;83;21036;-74
2021/01/09 00:24:07;;;;;;;43.67;24.27;;;;;;;0.93;81.95;99710.53;1725343;81;21184;-77
2021/01/09 00:26:35;;;;;;;40.07;22.57;;;;;;;0.93;81.60;99703.80;1721053;82;21030;-74
2021/01/09 00:29:03;;;;;;;46.28;24.57;;;;;;;0.92;81.81;99694.55;1714693;81;21543;-75
2021/01/09 00:31:33;;;;;;;43.20;24.03;;;;;;;0.92;82.05;99681.92;1721137;83;21165;-77
2021/01/09 00:34:01;;;;;;;43.90;23.60;;;;;;;0.88;81.99;99679.83;1737004;80;21104;-76
2021/01/09 00:36:29;;;;;;;41.42;23.45;;;;;;;0.83;82.17;99672.86;1751380;82;21482;-78
2021/01/09 00:38:57;;;;;;;40.92;22.73;;;;;;;0.81;81.99;99669.55;1730842;81;21530;-75
2021/01/09 00:41:30;;;;;;;40.12;22.40;;;;;;;0.78;82.03;99684.75;1699699;82;21637;-71
2021/01/09 00:43:59;;;;;;;44.53;24.53;;;;;;;0.77;82.26;99700.59;1730639;80;21213;-74
2021/01/09 00:46:26;;;;;;;41.70;22.52;;;;;;;0.76;82.29;99692.21;1740832;80;21043;-73
2021/01/09 00:48:54;;;;;;;40.92;21.55;;;;;;;0.76;82.33;99685.48;1720385;82;21644;-75
2021/01/09 00:51:22;;;;;;;43.95;21.87;;;;;;;0.75;82.14;99698.61;1723575;81;21022;-73
2021/01/09 00:53:50;;;;;;;42.83;22.58;;;;;;;0.76;82.15;99705.67;1723022;82;21145;-73
2021/01/09 00:56:18;;;;;;;42.93;21.95;;;;;;;0.74;81.77;99699.63;1728147;81;21083;-69
2021/01/09 00:58:47;;;;;;;37.70;20.77;;;;;;;0.71;81.86;99700.05;1736600;82;21100;-73
2021/01/09 01:01:18;;;;;;;38.90;21.23;;;;;;;0.69;81.88;99697.54;1708676;81;21058;-71
2021/01/09 01:03:46;;;;;;;39.87;21.93;;;;;;;0.72;81.78;99697.66;1720288;82;21194;-74
2021/01/09 01:06:14;;;;;;;36.65;20.02;;;;;;;0.73;81.84;99697.48;1736162;81;21529;-71
2021/01/09 01:08:42;;;;;;;38.53;20.95;;;;;;;0.74;81.84;99700.98;1705509;82;21154;-74
2021/01/09 01:11:10;;;;;;;40.65;20.90;;;;;;;0.77;81.73;99701.94;1706520;81;21047;-70
2021/01/09 01:13:38;;;;;;;39.75;19.77;;;;;;;0.77;81.73;99711.36;1721918;83;21104;-75
2021/01/09 01:16:06;;;;;;;37.42;20.90;;;;;;;0.79;81.81;99714.69;1676707;85;21049;-73
2021/01/09 01:18:34;;;;;;;39.35;21.75;;;;;;;0.80;81.62;99713.16;1733691;80;21126;-73
2021/01/09 01:21:03;;;;;;;39.75;21.73;;;;;;;0.82;81.78;99708.91;1716268;82;21534;-72
2021/01/09 01:23:32;;;;;;;36.40;20.67;;;;;;;0.84;81.83;99704.14;1722918;81;21524;-72
2021/01/09 01:26:00;;;;;;;35.17;19.52;;;;;;;0.83;81.75;99700.64;1713240;84;21044;-78
2021/01/09 01:28:28;;;;;;;41.58;22.13;;;;;;;0.84;81.53;99693.36;1734282;81;21532;-78
2021/01/09 01:30:55;;;;;;;40.33;21.17;;;;;;;0.85;81.80;99677.53;1742377;82;21101;-73
2021/01/09 01:33:24;;;;;;;41.88;22.45;;;;;;;0.84;81.78;99679.89;1728532;81;21116;-79
2021/01/09 01:35:51;;;;;;;39.85;21.70;;;;;;;0.86;81.92;99687.29;1713381;82;21016;-76
2021/01/09 01:38:19;;;;;;;42.50;22.45;;;;;;;0.86;81.91;99680.55;1728540;81;21112;-71
2021/01/09 01:40:47;;;;;;;37.65;21.30;;;;;;;0.85;81.82;99670.28;1715361;84;21041;-76
2021/01/09 01:43:15;;;;;;;39.08;21.20;;;;;;;0.79;81.74;99658.11;1731329;80;21120;-76
2021/01/09 01:45:43;;;;;;;41.98;21.82;;;;;;;0.77;81.59;99663.72;1717860;83;21101;-71
2021/01/09 01:48:11;;;;;;;40.30;22.25;;;;;;;0.72;81.61;99654.56;1738071;80;21095;-72
2021/01/09 01:50:39;;;;;;;36.03;19.70;;;;;;;0.71;81.60;99650.23;1713970;84;21489;-74
2021/01/09 01:53:07;;;;;;;41.55;22.22;;;;;;;0.71;81.46;99647.00;1713395;83;21661;-72
2021/01/09 01:55:35;;;;;;;39.83;21.10;;;;;;;0.71;81.64;99648.34;1712639;81;21070;-77
2021/01/09 01:58:03;;;;;;;39.05;20.75;;;;;;;0.71;81.43;99649.69;1712809;83;21106;-74
2021/01/09 02:00:31;;;;;;;36.00;19.73;;;;;;;0.70;81.34;99653.44;1714287;81;21457;-72
2021/01/09 02:03:00;;;;;;;37.13;20.62;;;;;;;0.66;81.21;99664.27;1746423;80;21121;-75
2021/01/09 02:05:35;;;;;;;40.33;21.40;;;;;;;0.65;81.70;99663.97;1724460;81;21059;-78
2021/01/09 02:08:05;;;;;;;38.50;21.03;;;;;;;0.64;81.64;99651.02;1699566;82;21157;-74
2021/01/09 02:10:33;;;;;;;39.57;21.57;;;;;;;0.65;81.73;99649.16;1729662;81;21036;-74
2021/01/09 02:13:04;;;;;;;39.98;21.80;;;;;;;0.66;81.80;99650.80;1730665;81;21143;-71
2021/01/09 02:15:32;;;;;;;37.67;20.80;;;;;;;0.69;82.00;99653.11;1728430;81;20994;-71
2021/01/09 02:18:00;;;;;;;38.83;20.77;;;;;;;0.74;81.58;99647.11;1732677;82;21139;-72
2021/01/09 02:20:29;;;;;;;37.88;20.90;;;;;;;0.70;81.37;99630.54;1728111;81;21588;-77
2021/01/09 02:22:57;;;;;;;41.13;23.27;;;;;;;0.68;81.33;99627.22;1714838;84;21132;-76
2021/01/09 02:25:24;;;;;;;43.63;26.02;;;;;;;0.63;81.42;99626.45;1713716;81;21043;-73
2021/01/09 02:27:52;;;;;;;45.17;26.47;;;;;;;0.61;81.65;99622.30;1709460;83;21124;-76
2021/01/09 02:30:24;;;;;;;49.20;27.40;;;;;;;0.66;81.75;99620.37;1710249;83;21789;-76
2021/01/09 02:33:00;;;;;;;50.77;26.70;;;;;;;0.67;81.63;99624.71;1711093;80;21051;-77
2021/01/09 02:35:29;;;;;;;47.57;25.07;;;;;;;0.63;81.50;99631.84;1710504;84;21063;-72
2021/01/09 02:37:57;;;;;;;45.30;24.77;;;;;;;0.57;81.74;99634.00;1710987;80;21095;-72
2021/01/09 02:40:25;;;;;;;50.90;25.92;;;;;;;0.53;81.99;99627.87;1711125;83;21035;-74
2021/01/09 02:42:52;;;;;;;47.60;25.00;;;;;;;0.53;82.14;99625.98;1711716;80;21535;-77
2021/01/09 02:45:20;;;;;;;47.33;24.12;;;;;;;0.51;82.17;99622.67;1711042;84;21114;-76
2021/01/09 02:47:48;;;;;;;42.85;24.37;;;;;;;0.50;82.36;99622.38;1732629;80;21620;-77
2021/01/09 02:50:16;;;;;;;44.77;24.75;;;;;;;0.49;82.79;99616.66;1749310;82;21040;-76
2021/01/09 02:52:44;;;;;;;43.78;24.80;;;;;;;0.52;82.68;99612.23;1742768;80;21087;-72
2021/01/09 02:55:12;;;;;;;53.33;28.47;;;;;;;0.52;82.57;99614.92;1736336;83;21062;-77
2021/01/09 02:57:40;;;;;;;52.58;27.77;;;;;;;0.52;82.56;99614.92;1728743;80;21095;-72
2021/01/09 03:00:12;;;;;;;51.30;27.93;;;;;;;0.54;82.62;99612.86;1710691;83;21052;-76
2021/01/09 03:02:39;;;;;;;49.40;25.83;;;;;;;0.53;82.56;99615.76;1714834;80;21450;-76
2021/01/09 03:05:09;;;;;;;46.73;26.40;;;;;;;0.50;83.05;99616.98;1736421;82;21066;-72
2021/01/09 03:07:37;;;;;;;48.53;26.67;;;;;;;0.53;83.27;99607.14;1735368;80;21126;-72
2021/01/09 03:10:06;;;;;;;48.80;26.50;;;;;;;0.57;83.19;99608.42;1697348;83;21516;-72
2021/01/09 03:12:34;;;;;;;62.80;35.60;;;;;;;0.62;83.32;99615.38;1726086;83;21104;-77
2021/01/09 03:15:05;;;;;;;67.37;38.63;;;;;;;0.69;83.16;99631.56;1734696;80;21093;-73
2021/01/09 03:17:33;;;;;;;79.57;45.10;;;;;;;0.73;82.84;99637.39;1736375;83;21011;-77
2021/01/09 03:20:00;;;;;;;77.65;45.50;;;;;;;0.73;82.85;99635.53;1747419;80;21114;-72
2021/01/09 03:22:30;;;;;;;75.70;42.83;;;;;;;0.75;82.93;99640.70;1750871;80;21017;-78
2021/01/09 03:24:58;;;;;;;68.28;35.73;;;;;;;0.75;83.05;99629.42;1738535;80;21143;-77
2021/01/09 03:27:25;;;;;;;62.75;33.42;;;;;;;0.77;82.90;99647.55;1723690;80;21497;-72
2021/01/09 03:35:36;;;;;;;73.80;45.52;;;;;;;0.78;82.77;99660.00;1808854;77;28488;-77
2021/01/09 03:38:05;;;;;;;68.67;39.47;;;;;;;0.76;82.87;99659.34;1781657;80;21168;-79
2021/01/09 03:40:35;;;;;;;68.10;39.88;;;;;;;0.80;82.72;99646.33;1745582;80;21168;-78
2021/01/09 03:43:03;;;;;;;65.37;36.23;;;;;;;0.78;82.67;99640.31;1732422;81;21173;-78
2021/01/09 03:45:31;;;;;;;72.65;40.40;;;;;;;0.79;82.59;99636.56;1742440;80;21553;-72
2021/01/09 03:47:59;;;;;;;68.90;39.67;;;;;;;0.74;82.44;99624.22;1758484;81;21200;-72
2021/01/09 03:50:27;;;;;;;60.45;33.67;;;;;;;0.68;82.61;99631.77;1730623;81;21211;-72
2021/01/09 03:52:55;;;;;;;61.23;34.03;;;;;;;0.64;83.02;99636.20;1719118;83;21165;-72
2021/01/09 03:55:23;;;;;;;69.03;36.15;;;;;;;0.67;83.16;99630.09;1753123;80;21162;-76
2021/01/09 03:57:51;;;;;;;58.15;32.55;;;;;;;0.66;82.99;99635.19;1732414;81;21248;-77
2021/01/09 04:00:19;;;;;;;61.53;32.40;;;;;;;0.62;82.97;99641.48;1732426;83;21181;-79
2021/01/09 04:02:47;;;;;;;55.38;30.90;;;;;;;0.60;83.00;99626.04;1732586;80;21272;-73
2021/01/09 04:05:15;;;;;;;61.60;32.35;;;;;;;0.62;83.05;99634.74;1732476;82;21149;-77
2021/01/09 04:07:43;;;;;;;68.50;38.58;;;;;;;0.63;83.04;99635.87;1754131;80;21150;-77
2021/01/09 04:10:11;;;;;;;71.00;40.45;;;;;;;0.64;82.97;99628.64;1760094;80;21173;-74
2021/01/09 04:12:39;;;;;;;59.00;32.35;;;;;;;0.65;82.77;99633.00;1703696;81;21133;-77
2021/01/09 04:15:08;;;;;;;51.95;30.05;;;;;;;0.61;82.74;99640.64;1719168;83;21147;-79
2021/01/09 04:17:36;;;;;;;45.07;24.07;;;;;;;0.60;82.74;99647.08;1740174;80;21125;-79
2021/01/09 04:20:07;;;;;;;45.83;23.57;;;;;;;0.57;82.65;99640.73;1758086;81;21138;-77
2021/01/09 04:22:35;;;;;;;40.43;22.00;;;;;;;0.56;82.67;99635.02;1757167;80;21115;-78
2021/01/09 04:25:05;;;;;;;38.60;21.50;;;;;;;0.58;82.65;99632.95;1760023;80;21138;-77
2021/01/09 04:27:32;;;;;;;36.03;19.80;;;;;;;0.59;82.76;99638.67;1724189;81;21132;-73
2021/01/09 04:30:00;;;;;;;37.65;21.30;;;;;;;0.59;82.87;99629.24;1731881;81;21686;-78
2021/01/09 04:32:29;;;;;;;42.13;22.07;;;;;;;0.60;82.90;99636.81;1694459;83;21642;-73
2021/01/09 04:34:58;;;;;;;42.83;22.03;;;;;;;0.62;82.92;99630.70;1722683;82;21153;-74
2021/01/09 04:37:26;;;;;;;36.80;20.23;;;;;;;0.63;82.87;99627.80;1708781;83;21211;-77
2021/01/09 04:39:53;;;;;;;43.48;22.02;;;;;;;0.64;82.84;99611.97;1711526;82;21316;-78
2021/01/09 04:42:21;;;;;;;42.65;20.05;;;;;;;0.64;82.81;99625.44;1723905;83;21142;-73
2021/01/09 04:44:49;;;;;;;36.90;19.95;;;;;;;0.67;82.65;99630.09;1722947;82;21554;-77
2021/01/09 04:47:17;;;;;;;38.50;20.88;;;;;;;0.65;82.36;99650.51;1723793;83;21566;-73
2021/01/09 04:49:45;;;;;;;41.65;20.85;;;;;;;0.61;82.34;99654.10;1692021;82;21168;-79
2021/01/09 04:52:13;;;;;;;39.57;21.60;;;;;;;0.61;82.60;99646.53;1679502;83;21220;-78
2021/01/09 04:54:41;;;;;;;39.33;20.20;;;;;;;0.60;82.72;99640.34;1697587;82;21439;-74
2021/01/09 04:57:08;;;;;;;39.55;21.07;;;;;;;0.61;82.67;99635.77;1685217;84;21335;-77
2021/01/09 04:59:36;;;;;;;42.55;21.15;;;;;;;0.58;82.70;99655.84;1679232;84;21142;-77
2021/01/09 05:02:04;;;;;;;38.60;20.70;;;;;;;0.57;82.79;99666.83;1706359;84;21598;-77
2021/01/09 05:04:33;;;;;;;42.85;21.33;;;;;;;0.54;82.85;99645.16;1706912;82;21210;-73
2021/01/09 05:07:01;;;;;;;40.70;19.90;;;;;;;0.51;82.85;99647.41;1680298;84;21139;-73
2021/01/09 05:09:30;;;;;;;40.53;20.10;;;;;;;0.50;82.92;99661.92;1682004;82;21887;-73
2021/01/09 05:11:58;;;;;;;36.93;21.15;;;;;;;0.48;82.96;99658.60;1735516;83;21156;-74
2021/01/09 05:14:27;;;;;;;44.93;20.80;;;;;;;0.49;83.18;99644.93;1735327;82;21136;-74
2021/01/09 05:16:58;;;;;;;36.57;19.47;;;;;;;0.50;83.07;99653.84;1733143;82;21124;-73
2021/01/09 05:19:29;;;;;;;38.63;20.00;;;;;;;0.50;83.23;99660.58;1735246;82;21298;-77
2021/01/09 05:21:58;;;;;;;40.13;19.50;;;;;;;0.52;83.18;99663.38;1709076;82;21135;-76
2021/01/09 05:24:26;;;;;;;39.43;20.33;;;;;;;0.58;83.10;99655.84;1707886;83;21170;-73
2021/01/09 05:26:54;;;;;;;37.13;19.85;;;;;;;0.56;83.00;99655.21;1709330;82;21906;-73
2021/01/09 05:29:22;;;;;;;37.42;19.75;;;;;;;0.56;83.17;99649.83;1709569;84;21144;-71
2021/01/09 05:31:50;;;;;;;33.63;18.42;;;;;;;0.59;83.12;99652.64;1707643;82;21157;-77
2021/01/09 05:34:17;;;;;;;35.35;19.75;;;;;;;0.60;83.14;99652.45;1679424;84;21164;-78
2021/01/09 05:36:45;;;;;;;37.55;20.30;;;;;;;0.60;83.03;99644.38;1668030;83;21156;-71
2021/01/09 05:39:13;;;;;;;38.50;20.07;;;;;;;0.61;82.93;99651.41;1679938;85;21287;-78
2021/01/09 05:41:42;;;;;;;35.50;18.87;;;;;;;0.60;82.87;99652.45;1686574;82;21690;-71
2021/01/09 05:44:10;;;;;;;38.30;20.40;;;;;;;0.62;82.81;99634.23;1707910;83;21167;-71
2021/01/09 05:46:41;;;;;;;37.90;20.35;;;;;;;0.65;82.68;99651.86;1708375;82;21201;-78
2021/01/09 05:49:10;;;;;;;37.07;20.00;;;;;;;0.69;82.63;99641.49;1718770;83;21177;-75
2021/01/09 05:51:39;;;;;;;39.80;20.73;;;;;;;0.69;82.45;99655.80;1718356;82;21153;-79
2021/01/09 05:54:08;;;;;;;42.10;20.70;;;;;;;0.65;82.40;99649.16;1679290;85;21187;-74
2021/01/09 05:56:40;;;;;;;47.23;22.93;;;;;;;0.63;82.65;99650.69;1679709;85;21186;-77
2021/01/09 05:59:08;;;;;;;45.20;22.67;;;;;;;0.64;82.75;99644.28;1705214;82;21586;-77
2021/01/09 06:01:36;;;;;;;44.30;22.02;;;;;;;0.67;82.68;99646.25;1657882;84;21190;-73
2021/01/09 06:04:10;;;;;;;;;;;;;;;0.67;82.67;99643.56;1688853;82;21166;-79
2021/01/09 06:07:08;;;;;;;47.47;23.97;;;;;;;0.69;82.66;99641.49;1653226;85;20184;-75
2021/01/09 06:10:12;;;;;;;50.83;24.33;;;;;;;0.72;82.55;99641.10;1680988;83;21129;-81
2021/01/09 06:13:10;;;;;;;55.73;25.00;;;;;;;0.72;82.56;99651.36;1706367;83;21247;-78
2021/01/09 06:15:38;;;;;;;57.57;25.67;;;;;;;0.72;82.62;99644.63;1709507;84;21160;-79
2021/01/09 06:18:06;;;;;;;49.55;25.00;;;;;;;0.71;82.70;99651.03;1707753;82;21291;-77
2021/01/09 06:20:33;;;;;;;56.58;25.90;;;;;;;0.72;82.61;99660.80;1704431;83;21172;-75
2021/01/09 06:23:02;;;;;;;53.85;26.57;;;;;;;0.72;82.57;99661.30;1697390;83;21133;-76
2021/01/09 06:25:32;;;;;;;54.43;25.70;;;;;;;0.68;82.73;99660.05;1695589;83;21164;-73
2021/01/09 06:28:03;;;;;;;50.17;24.90;;;;;;;0.63;83.04;99655.27;1704324;83;21651;-72
2021/01/09 06:30:33;;;;;;;43.63;23.03;;;;;;;0.59;82.99;99658.86;1703647;83;21108;-78
2021/01/09 06:33:03;;;;;;;43.63;22.87;;;;;;;0.58;83.04;99655.84;1697416;83;21152;-77
2021/01/09 06:35:32;;;;;;;45.87;23.80;;;;;;;0.61;83.07;99658.66;1671236;84;21188;-77
2021/01/09 06:38:01;;;;;;;41.03;22.10;;;;;;;0.65;83.13;99653.20;1698363;83;21604;-77
2021/01/09 06:40:29;;;;;;;;;;;;;;;0.69;82.95;99657.66;1698403;83;21189;-77
2021/01/09 06:42:57;;;;;;;41.70;22.20;;;;;;;0.71;82.89;99652.92;1670185;84;20523;-73
2021/01/09 06:45:26;;;;;;;47.13;23.98;;;;;;;0.71;82.95;99652.92;1695717;83;21238;-73
2021/01/09 06:48:01;;;;;;;45.65;23.38;;;;;;;0.73;82.89;99660.28;1697541;83;21766;-74
2021/01/09 06:50:33;;;;;;;44.30;22.13;;;;;;;0.73;82.89;99660.28;1671508;84;21664;-74
2021/01/09 06:53:04;;;;;;;43.63;23.20;;;;;;;0.73;82.82;99664.32;1695890;83;21133;-71
2021/01/09 06:55:43;;;;;;;47.67;25.17;;;;;;;0.73;82.99;99661.12;1695393;83;21232;-72
2021/01/09 06:58:15;;;;;;;59.47;29.63;;;;;;;0.70;83.18;99666.06;1697128;84;21164;-71
2021/01/09 07:00:43;;;;;;;56.53;29.47;;;;;;;0.66;83.20;99671.55;1672651;83;21156;-71
2021/01/09 07:03:16;;;;;;;56.88;28.38;;;;;;;0.68;83.33;99677.55;1697843;84;21144;-72
2021/01/09 07:05:47;;;;;;;50.40;25.93;;;;;;;0.68;83.44;99675.70;1697425;83;21160;-70
2021/01/09 07:08:25;;;;;;;51.20;28.00;;;;;;;0.64;83.42;99675.25;1697081;83;21179;-71
2021/01/09 07:10:56;;;;;;;52.80;28.03;;;;;;;0.59;83.62;99669.63;1697367;83;21148;-76
2021/01/09 07:13:24;;;;;;;48.90;28.17;;;;;;;0.57;83.85;99677.59;1723108;82;21564;-75
2021/01/09 07:16:14;;;;;;;56.88;31.60;;;;;;;0.59;83.89;99679.56;1726650;83;21595;-77
2021/01/09 07:18:47;;;;;;;60.07;31.13;;;;;;;0.62;83.76;99674.63;1697447;83;21180;-78
2021/01/09 07:21:20;;;;;;;54.37;29.87;;;;;;;0.63;83.81;99676.27;1695730;84;21710;-76
2021/01/09 07:23:53;;;;;;;57.97;31.10;;;;;;;0.66;83.71;99679.63;1720883;82;21123;-77
2021/01/09 07:26:21;;;;;;;49.53;27.57;;;;;;;0.66;83.76;99689.85;1699820;83;21148;-73
2021/01/09 07:28:49;;;;;;;53.17;28.75;;;;;;;0.64;83.84;99686.02;1688338;83;21271;-70
2021/01/09 07:31:19;;;;;;;;;;;;;;;0.66;83.91;99683.66;1702503;83;21590;-71
2021/01/09 07:33:47;;;;;;;49.63;26.37;;;;;;;0.69;83.95;99688.63;1645171;83;20433;-73
2021/01/09 07:36:15;;;;;;;52.50;28.55;;;;;;;0.71;84.00;99694.67;1695978;84;21359;-71
2021/01/09 07:38:47;;;;;;;48.60;27.85;;;;;;;0.72;84.08;99696.31;1670264;84;21255;-71
2021/01/09 07:41:37;;;;;;;56.73;29.37;;;;;;;0.71;84.12;99705.44;1696068;84;21149;-78
2021/01/09 07:44:16;;;;;;;51.97;27.97;;;;;;;0.71;84.26;99701.41;1682757;83;21164;-72
2021/01/09 07:46:53;;;;;;;55.10;28.75;;;;;;;0.72;84.55;99704.39;1697685;83;21259;-76
2021/01/09 07:49:26;;;;;;;50.73;26.93;;;;;;;0.77;84.55;99705.97;1696532;83;21539;-79
2021/01/09 07:52:05;;;;;;;56.30;29.37;;;;;;;0.79;84.49;99701.21;1672355;83;21176;-74
2021/01/09 07:54:44;;;;;;;40.13;22.53;;;;;;;0.83;84.47;99700.64;1696151;83;21251;-78
2021/01/09 07:57:22;;;;;;;47.97;26.57;;;;;;;0.84;83.76;99706.83;1671335;83;21634;-79
2021/01/09 08:00:03;;;;;;;48.15;25.37;;;;;;;0.80;83.79;99702.89;1696966;83;21133;-77
2021/01/09 08:02:41;;;;;;;40.97;22.77;;;;;;;0.79;84.21;99702.05;1671530;84;21164;-77
2021/01/09 08:05:21;;;;;;;40.90;22.97;;;;;;;0.83;84.06;99698.45;1671934;83;21153;-74
2021/01/09 08:07:54;;;;;;;38.90;21.37;;;;;;;0.85;83.89;99688.30;1697683;83;21235;-73
2021/01/09 08:10:28;;;;;;;34.17;19.50;;;;;;;0.92;83.77;99683.77;1695815;83;21193;-73
2021/01/09 08:13:07;;;;;;;34.17;19.13;;;;;;;0.97;83.56;99686.70;1696345;83;21160;-76
2021/01/09 08:15:36;;;;;;;33.88;19.42;;;;;;;1.00;82.82;99690.34;1705926;83;21104;-78
2021/01/09 08:18:05;;;;;;;34.27;19.33;;;;;;;1.00;82.66;99690.34;1709314;83;21180;-78
2021/01/09 08:20:33;;;;;;;34.83;19.50;;;;;;;1.01;82.79;99673.16;1696367;83;21581;-73
2021/01/09 08:23:05;;;;;;;32.20;19.02;;;;;;;1.05;82.83;99672.55;1681248;84;21597;-75
2021/01/09 08:25:38;;;;;;;26.90;13.93;;;;;;;1.10;82.44;99666.55;1674244;83;21670;-76
2021/01/09 08:28:06;;;;;;;20.80;11.30;;;;;;;1.11;81.41;99671.72;1671003;84;21691;-77
2021/01/09 08:30:39;;;;;;;27.60;15.28;;;;;;;1.13;80.78;99668.84;1696741;84;21124;-73
2021/01/09 08:33:10;;;;;;;27.27;15.30;;;;;;;1.17;80.87;99657.95;1697242;83;21731;-72
2021/01/09 08:35:49;;;;;;;27.13;15.20;;;;;;;1.19;80.75;99658.58;1697195;83;21157;-73
2021/01/09 08:38:16;;;;;;;21.13;11.53;;;;;;;1.19;81.08;99662.62;1696652;83;21184;-71
2021/01/09 08:40:44;;;;;;;22.73;13.07;;;;;;;1.09;79.55;99654.09;1697089;83;21284;-73
2021/01/09 08:43:14;;;;;;;28.60;16.35;;;;;;;0.93;80.30;99651.77;1693788;83;21155;-72
2021/01/09 08:45:51;;;;;;;45.10;25.17;;;;;;;0.89;80.85;99662.61;1694352;84;21588;-72
2021/01/09 08:48:31;;;;;;;47.90;26.40;;;;;;;0.89;81.76;99654.02;1700932;82;21155;-73
2021/01/09 08:51:08;;;;;;;42.97;25.07;;;;;;;0.91;82.65;99655.19;1708018;84;21223;-72
2021/01/09 08:53:48;;;;;;;43.90;25.12;;;;;;;0.85;83.03;99659.52;1707539;82;21265;-71
2021/01/09 08:56:16;;;;;;;46.27;25.47;;;;;;;0.75;83.56;99651.48;1708176;84;21639;-74
2021/01/09 08:58:44;;;;;;;50.30;28.67;;;;;;;0.67;84.15;99663.76;1730094;81;21127;-75
2021/01/09 09:01:13;;;;;;;51.10;28.40;;;;;;;0.56;84.56;99653.03;1739302;82;21674;-74
2021/01/09 09:03:49;;;;;;;53.83;30.43;;;;;;;0.54;85.12;99646.52;1720949;82;21254;-77
2021/01/09 09:06:23;;;;;;;50.30;29.03;;;;;;;0.59;85.18;99642.70;1708371;84;21147;-72
2021/01/09 09:08:51;;;;;;;49.17;25.47;;;;;;;0.63;85.03;99629.69;1682123;84;21152;-72
2021/01/09 09:11:21;;;;;;;46.73;25.08;;;;;;;0.66;84.03;99635.99;1708083;84;21227;-75
2021/01/09 09:14:04;;;;;;;39.50;22.53;;;;;;;0.68;84.10;99634.47;1627962;85;21137;-78
2021/01/09 09:16:34;;;;;;;39.07;21.97;;;;;;;0.68;83.28;99644.73;1676292;85;21122;-77
2021/01/09 09:19:16;;;;;;;37.30;20.80;;;;;;;0.63;83.17;99639.92;1676434;84;21127;-78
2021/01/09 09:21:46;;;;;;;36.17;20.53;;;;;;;0.54;83.02;99643.82;1677733;85;21125;-76
2021/01/09 09:24:15;;;;;;;37.57;20.47;;;;;;;0.47;83.72;99653.73;1677449;84;21136;-77
2021/01/09 09:26:43;;;;;;;36.70;20.40;;;;;;;0.47;83.52;99648.85;1676464;84;21165;-78
2021/01/09 09:29:13;;;;;;;;;;;;;;;0.45;83.89;99645.53;1679848;84;21097;-77
2021/01/09 09:31:44;;;;;;;41.60;22.47;;;;;;;0.35;84.45;99637.82;1677857;84;20148;-76
2021/01/09 09:34:14;;;;;;;42.97;22.23;;;;;;;0.31;84.93;99644.61;1658353;84;21162;-78
2021/01/09 09:36:55;;;;;;;38.57;21.63;;;;;;;0.34;85.16;99626.73;1676234;85;21161;-78
2021/01/09 09:39:24;;;;;;;37.73;21.07;;;;;;;0.34;85.23;99623.20;1677141;84;21588;-78
2021/01/09 09:42:00;;;;;;;37.70;21.07;;;;;;;0.36;85.12;99617.93;1660807;84;21228;-79
2021/01/09 09:44:45;;;;;;;36.00;19.83;;;;;;;0.40;85.08;99620.56;1692709;84;21160;-77
2021/01/09 09:47:26;;;;;;;33.93;19.00;;;;;;;0.39;84.58;99621.58;1705065;84;21603;-78
2021/01/09 09:49:59;;;;;;;33.73;18.90;;;;;;;0.26;83.94;99609.39;1647154;84;21247;-78
2021/01/09 09:52:27;;;;;;;33.00;18.13;;;;;;;0.24;84.44;99620.03;1677544;84;21177;-75
2021/01/09 09:55:06;;;;;;;32.33;17.87;;;;;;;0.29;84.57;99617.58;1677540;84;21145;-75
2021/01/09 09:57:34;;;;;;;30.37;17.50;;;;;;;0.28;84.75;99610.02;1669358;84;21130;-75
2021/01/09 10:00:12;;;;;;;35.43;19.42;;;;;;;0.30;84.83;99608.48;1650303;87;21170;-77
2021/01/09 10:02:53;;;;;;;32.73;18.83;;;;;;;0.32;84.82;99609.11;1675079;84;21149;-77
2021/01/09 10:05:23;;;;;;;37.70;20.20;;;;;;;0.36;84.77;99609.86;1674150;85;21154;-77
2021/01/09 10:08:08;;;;;;;36.93;19.03;;;;;;;0.38;84.16;99602.41;1672403;84;21173;-77
2021/01/09 10:10:36;;;;;;;31.23;17.50;;;;;;;0.38;83.65;99593.52;1659405;84;21316;-77
2021/01/09 10:13:04;;;;;;;29.67;18.00;;;;;;;0.32;83.88;99598.34;1704156;83;21145;-77
2021/01/09 10:15:37;;;;;;;32.38;17.30;;;;;;;0.32;83.57;99603.22;1692465;84;21138;-78
2021/01/09 10:18:05;;;;;;;31.90;16.67;;;;;;;0.27;82.90;99602.98;1669135;84;21090;-79
2021/01/09 10:20:33;;;;;;;34.63;17.50;;;;;;;0.25;82.89;99595.63;1650297;85;21145;-77
2021/01/09 10:23:01;;;;;;;26.52;15.38;;;;;;;0.25;83.21;99591.59;1693082;83;21600;-75
2021/01/09 10:25:29;;;;;;;28.27;15.43;;;;;;;0.30;82.47;99592.34;1693908;84;21298;-76
2021/01/09 10:27:57;;;;;;;30.05;16.90;;;;;;;0.29;82.50;99591.50;1666069;83;21236;-74
2021/01/09 10:30:26;;;;;;;28.27;15.23;;;;;;;0.35;82.70;99589.87;1716442;83;21190;-81
2021/01/09 10:32:53;;;;;;;28.87;14.93;;;;;;;0.38;82.46;99590.83;1708628;81;21268;-81
2021/01/09 10:35:22;;;;;;;30.97;16.10;;;;;;;0.42;82.05;99591.58;1703833;83;21143;-75
2021/01/09 10:37:50;;;;;;;28.83;15.98;;;;;;;0.46;80.71;99591.48;1704111;83;21112;-77
2021/01/09 10:40:18;;;;;;;29.75;15.88;;;;;;;0.48;81.01;99588.61;1704288;83;21584;-75
2021/01/09 10:42:45;;;;;;;30.25;15.78;;;;;;;0.48;79.83;99589.95;1706529;83;21145;-76
2021/01/09 10:45:15;;;;;;;36.65;18.23;;;;;;;0.39;80.15;99586.58;1704794;84;21146;-76
2021/01/09 10:47:43;;;;;;;31.73;15.87;;;;;;;0.35;80.54;99585.84;1704424;84;21176;-78
2021/01/09 10:50:12;;;;;;;32.07;16.27;;;;;;;0.29;80.45;99590.66;1698495;83;21164;-79
2021/01/09 10:52:40;;;;;;;35.43;16.73;;;;;;;0.27;80.61;99588.69;1670628;86;21162;-78
2021/01/09 10:55:09;;;;;;;30.05;15.90;;;;;;;0.25;80.97;99590.25;1679089;83;21141;-77
2021/01/09 10:57:36;;;;;;;;;;;;;;;0.28;81.55;99588.48;1678677;85;21231;-75
2021/01/09 11:00:08;;;;;;;30.73;15.63;;;;;;;0.30;81.18;99586.95;1690133;83;20154;-79
2021/01/09 11:02:36;;;;;;;27.97;14.53;;;;;;;0.27;81.21;99596.77;1693137;81;21157;-76
2021/01/09 11:05:07;;;;;;;30.08;15.23;;;;;;;0.25;81.06;99594.29;1718867;83;21239;-81
2021/01/09 11:07:35;;;;;;;30.70;15.77;;;;;;;0.23;80.10;99593.62;1679349;84;21593;-77
2021/01/09 11:10:05;;;;;;;28.42;14.70;;;;;;;0.20;79.97;99595.91;1675854;84;21260;-81
2021/01/09 11:12:33;;;;;;;30.23;14.60;;;;;;;0.18;80.12;99590.70;1677333;84;21192;-76
2021/01/09 11:15:03;;;;;;;29.63;15.00;;;;;;;0.16;79.98;99594.11;1677493;84;21157;-81
2021/01/09 11:17:30;;;;;;;25.57;14.28;;;;;;;0.16;80.12;99598.14;1677711;84;21179;-82
2021/01/09 11:19:58;;;;;;;30.82;14.78;;;;;;;0.15;79.83;99601.89;1677515;84;21161;-79
2021/01/09 11:22:26;;;;;;;27.07;13.68;;;;;;;0.13;80.15;99598.53;1714302;83;21183;-75
2021/01/09 11:24:54;;;;;;;23.12;13.05;;;;;;;0.14;80.25;99604.25;1705111;84;21116;-82
2021/01/09 11:27:22;;;;;;;23.70;12.63;;;;;;;0.14;79.81;99600.21;1699774;83;23144;-80
2021/01/09 11:29:50;;;;;;;21.93;12.68;;;;;;;0.14;79.94;99605.59;1693536;84;21712;-80
2021/01/09 11:32:19;;;;;;;27.23;13.70;;;;;;;0.19;79.98;99607.69;1703527;83;21136;-76
2021/01/09 11:34:47;;;;;;;25.37;13.45;;;;;;;0.22;80.17;99607.30;1669147;85;21166;-75
2021/01/09 11:37:15;;;;;;;23.87;13.05;;;;;;;0.27;79.87;99604.33;1666158;84;21121;-77
2021/01/09 11:39:43;;;;;;;23.60;12.78;;;;;;;0.30;79.46;99608.48;1661501;85;21584;-79
2021/01/09 11:42:11;;;;;;;24.57;13.00;;;;;;;0.29;79.15;99611.69;1694402;83;21156;-79
2021/01/09 11:44:39;;;;;;;26.37;13.50;;;;;;;0.27;79.04;99615.61;1687531;84;21255;-82
2021/01/09 11:47:07;;;;;;;23.47;12.95;;;;;;;0.24;78.95;99618.18;1694038;83;21181;-76